Pelican Arrow — 3FNQ4 — position and weather

sailwx.info

Track history (hours):
 
Tides and Currents Weather Stations Pressure Air Temp Water Temp Dewpoint Dewpoint Depression Visibility Wind Speed Wind Dir Waves Ship Positions

Pelican Arrow

Last reported at 2017-Nov-15 22:00 UTC. Time now 2017-Nov-19 05:03 UTC.
Position N 23°41' W 112°40'.

Length 200 m; draft 10.4 m.

Type: Ship. MMSI: 354726000.

Date/timePositionNaut miles runAvg speedWind from/ knotsBaromVisibWave heightAir tempDewpointWater temp
2017-Nov-15 22:00N 23°41' W 112°40'1813.1
2017-Nov-15 20:37N 23°51' W 112°56'213.1
2017-Nov-15 20:30N 23°52' W 112°57'4313.2
2017-Nov-15 17:14N 24°16' W 113°37'613.0
2017-Nov-15 16:48N 24°19' W 113°42'1713.0
2017-Nov-15 15:31N 24°28' W 113°57'113.5
2017-Nov-15 15:27N 24°29' W 113°58'1613.1
2017-Nov-15 14:12N 24°38' W 114°13'413.1
2017-Nov-15 13:54N 24°40' W 114°17'613.1
2017-Nov-15 13:27N 24°44' W 114°22'613.0
2017-Nov-15 13:00N 24°47' W 114°28'613.0
2017-Nov-15 12:30N 24°51' W 114°33'1213.1
2017-Nov-15 11:37N 24°58' W 114°43'113.0
2017-Nov-15 11:30N 24°59' W 114°45'912.7
2017-Nov-15 10:46N 25°04' W 114°53'312.4
2017-Nov-15 10:30N 25°06' W 114°56'712.5
2017-Nov-15 09:56N 25°11' W 115°02'2012.8
2017-Nov-15 08:23N 25°23' W 115°19'512.7
2017-Nov-15 08:00N 25°26' W 115°23'1812.9
2017-Nov-15 06:37N 25°37' W 115°39'313.1
2017-Nov-15 06:23N 25°39' W 115°42'  
2017-Nov-09 17:42N 46°11' W 125°44'2 9.1
2017-Nov-09 17:30N 46°13' W 125°42'6 8.8
2017-Nov-09 16:51N 46°16' W 125°35'3 9.1
2017-Nov-09 16:31N 46°17' W 125°32'4 8.6
2017-Nov-09 16:00N 46°20' W 125°26'4 8.7
2017-Nov-09 15:30N 46°22' W 125°21'4 9.0
2017-Nov-09 15:01N 46°26' W 125°20'4 8.6
2017-Nov-09 14:30N 46°31' W 125°19'4 8.6
2017-Nov-09 14:00N 46°35' W 125°18'4 7.6
2017-Nov-09 13:30N 46°38' W 125°16'4 8.2
2017-Nov-09 13:01N 46°42' W 125°14'6 8.7
2017-Nov-09 12:23N 46°48' W 125°12'3 8.1
2017-Nov-09 12:01N 46°51' W 125°11'2 3.2
2017-Nov-09 11:18N 46°52' W 125°09'310.8
2017-Nov-09 11:00N 46°50' W 125°06'510.9
2017-Nov-09 10:31N 46°45' W 125°00'510.9
2017-Nov-09 10:00N 46°41' W 124°55'611.2
2017-Nov-09 09:31N 46°37' W 124°50'611.4
2017-Nov-09 09:00N 46°32' W 124°45'611.1
2017-Nov-09 08:31N 46°28' W 124°40'510.9
2017-Nov-09 08:01N 46°24' W 124°35'510.0
2017-Nov-09 07:31N 46°20' W 124°30'5 9.4
2017-Nov-09 07:01N 46°17' W 124°26'5 9.7
2017-Nov-09 06:30N 46°13' W 124°21'6 7.7
2017-Nov-09 05:46N 46°12' W 124°13'2 9.0
2017-Nov-09 05:31N 46°13' W 124°10'4 8.3
2017-Nov-09 05:01N 46°15' W 124°05'611.8
2017-Nov-09 04:31N 46°13' W 123°57'5 9.8
2017-Nov-09 04:00N 46°12' W 123°50'510.2
2017-Nov-09 03:31N 46°14' W 123°44'612.5
2017-Nov-09 03:01N 46°15' W 123°35'510.7
2017-Nov-09 02:31N 46°16' W 123°27'510.5
2017-Nov-09 02:00N 46°11' W 123°25'510.7
2017-Nov-09 01:31N 46°09' W 123°18'611.9
2017-Nov-09 01:00N 46°11' W 123°10'611.6
2017-Nov-09 00:27N 46°09' W 123°02'410.2
2017-Nov-09 00:01N 46°06' W 122°57'5 9.8
2017-Nov-08 23:30N 46°02' W 122°53'510.5
2017-Nov-08 23:00N 45°57' W 122°49'612.3
2017-Nov-08 22:30N 45°51' W 122°47'612.0
2017-Nov-08 22:01N 45°45' W 122°46'611.9
2017-Nov-08 21:30N 45°39' W 122°46'3 6.9
2017-Nov-08 21:00N 45°36' W 122°47'0 0.4
2017-Nov-08 20:13N 45°36' W 122°46'0 0.0
2017-Nov-08 19:58N 45°36' W 122°46'0 0.0
2017-Nov-08 19:28N 45°36' W 122°46'0 0.0
2017-Nov-08 19:01N 45°36' W 122°46'0 0.0
2017-Nov-08 18:28N 45°36' W 122°46'0 0.0
2017-Nov-08 17:49N 45°36' W 122°46'0 0.0
2017-Nov-08 17:10N 45°36' W 122°46'0 0.0
2017-Nov-08 16:58N 45°36' W 122°46'0 0.0
2017-Nov-08 16:31N 45°36' W 122°46'0 0.0
2017-Nov-08 16:01N 45°36' W 122°46'0 0.0
2017-Nov-08 15:25N 45°36' W 122°46'0 0.0
2017-Nov-08 14:58N 45°36' W 122°46'0 0.0
2017-Nov-08 14:07N 45°36' W 122°46'0 0.0
2017-Nov-08 13:58N 45°36' W 122°46'0 0.0
2017-Nov-08 13:16N 45°36' W 122°46'0 0.0
2017-Nov-08 13:01N 45°36' W 122°46'0 0.0
2017-Nov-08 12:31N 45°36' W 122°46'0 0.0
2017-Nov-08 12:01N 45°36' W 122°46'0 0.0
2017-Nov-08 11:25N 45°36' W 122°46'0 0.0
2017-Nov-08 10:58N 45°36' W 122°46'0 0.0
2017-Nov-08 10:31N 45°36' W 122°46'0 0.1
2017-Nov-08 09:46N 45°36' W 122°47'0 0.0
2017-Nov-08 09:25N 45°36' W 122°47'0 0.0
2017-Nov-08 09:01N 45°36' W 122°47'0 0.0
2017-Nov-08 08:16N 45°36' W 122°47'0 0.0
2017-Nov-08 08:01N 45°36' W 122°47'0 0.0
2017-Nov-08 07:28N 45°36' W 122°47'0 0.0
2017-Nov-08 06:58N 45°36' W 122°47'0 0.0
2017-Nov-08 06:28N 45°36' W 122°47'0 0.0
2017-Nov-08 05:55N 45°36' W 122°47'0 0.1
2017-Nov-08 05:22N 45°36' W 122°46'0 0.0
2017-Nov-08 04:55N 45°36' W 122°46'0 0.0
2017-Nov-08 04:13N 45°36' W 122°46'0 0.0
2017-Nov-08 03:58N 45°36' W 122°46'0 0.0
2017-Nov-08 03:25N 45°36' W 122°46'0 0.0
2017-Nov-08 02:52N 45°36' W 122°46'0 0.0
2017-Nov-08 02:16N 45°36' W 122°46'0 0.0
2017-Nov-08 01:55N 45°36' W 122°46'0 0.0
2017-Nov-08 01:28N 45°36' W 122°46'0 0.0
2017-Nov-08 00:58N 45°36' W 122°46'0 0.0
2017-Nov-08 00:31N 45°36' W 122°46'0 0.1
2017-Nov-08 00:00N 45°36' W 122°47'0 0.0
2017-Nov-07 23:22N 45°36' W 122°47'0 0.0
2017-Nov-07 22:55N 45°36' W 122°47'0 0.0
2017-Nov-07 22:28N 45°36' W 122°47'0 0.0
2017-Nov-07 21:55N 45°36' W 122°47'0 0.0
2017-Nov-07 21:07N 45°36' W 122°47'0 0.0
2017-Nov-07 20:52N 45°36' W 122°47'0 0.0
2017-Nov-07 20:28N 45°36' W 122°47'0 0.0
2017-Nov-07 19:55N 45°36' W 122°47'0 0.1
2017-Nov-07 19:25N 45°36' W 122°46'0 0.0
2017-Nov-07 18:58N 45°36' W 122°46'0 0.0
2017-Nov-07 18:28N 45°36' W 122°46'0 0.0
2017-Nov-07 17:49N 45°36' W 122°46'0 0.0
2017-Nov-07 17:10N 45°36' W 122°46'0 0.0
2017-Nov-07 16:58N 45°36' W 122°46'0 0.0
2017-Nov-07 16:31N 45°36' W 122°46'0 0.0
2017-Nov-07 15:58N 45°36' W 122°46'0 0.0
2017-Nov-07 15:25N 45°36' W 122°46'0 0.0
2017-Nov-07 15:01N 45°36' W 122°46'0 0.0
2017-Nov-07 14:25N 45°36' W 122°46'0 0.0
2017-Nov-07 13:55N 45°36' W 122°46'0 0.0
2017-Nov-07 13:28N 45°36' W 122°46'0 0.0
2017-Nov-07 12:55N 45°36' W 122°46'0 0.0
2017-Nov-07 12:25N 45°36' W 122°46'0 0.0
2017-Nov-07 11:54N 45°36' W 122°46'0 0.0
2017-Nov-07 11:25N 45°36' W 122°46'0 0.0
2017-Nov-07 11:01N 45°36' W 122°46'0 0.0
2017-Nov-07 10:28N 45°36' W 122°46'0 0.0
2017-Nov-07 09:52N 45°36' W 122°46'0 0.0
2017-Nov-07 09:28N 45°36' W 122°46'0 0.0
2017-Nov-07 08:55N 45°36' W 122°46'0 0.0
2017-Nov-07 08:25N 45°36' W 122°46'0 0.1
2017-Nov-07 08:00N 45°36' W 122°47'1 1.1
2017-Nov-07 07:30N 45°36' W 122°47'3 6.0
2017-Nov-07 07:00N 45°39' W 122°46'1 1.0
2017-Nov-07 06:24N 45°40' W 122°46'0 0.2
2017-Nov-07 06:00N 45°40' W 122°46'0 0.0
2017-Nov-07 05:30N 45°40' W 122°46'0 0.0
2017-Nov-07 05:00N 45°40' W 122°46'0 0.0
2017-Nov-07 04:27N 45°40' W 122°46'0 0.0
2017-Nov-07 04:00N 45°40' W 122°46'0 0.0
2017-Nov-07 00:27N 45°40' W 122°46'0 0.0
2017-Nov-07 00:00N 45°40' W 122°46'0 0.0
2017-Nov-06 23:30N 45°40' W 122°46'0 0.0
2017-Nov-06 22:54N 45°40' W 122°46'0 0.0
2017-Nov-06 22:27N 45°40' W 122°46'0 0.0
2017-Nov-06 22:00N 45°40' W 122°46'0 0.0
2017-Nov-06 21:30N 45°40' W 122°46'0 0.0
2017-Nov-06 21:00N 45°40' W 122°46'0 0.0
2017-Nov-06 20:18N 45°40' W 122°46'0 0.0
2017-Nov-06 02:27N 45°40' W 122°46'0 0.0
2017-Nov-06 01:57N 45°40' W 122°46'0 0.0
2017-Nov-06 01:30N 45°40' W 122°46'0 0.0
2017-Nov-06 01:00N 45°40' W 122°46'0 0.0
2017-Nov-06 00:27N 45°40' W 122°46'0 0.0
2017-Nov-06 00:00N 45°40' W 122°46'0 0.0
2017-Nov-05 23:21N 45°40' W 122°46'0 0.0
2017-Nov-05 23:00N 45°40' W 122°46'0 0.0
2017-Nov-05 22:18N 45°40' W 122°46'  
Track history (hours):
 
Tides and Currents Weather Stations Pressure Air Temp Water Temp Dewpoint Dewpoint Depression Visibility Wind Speed Wind Dir Waves Ship Positions

Pelican Arrow

Last reported at 2017-Nov-15 22:00 UTC. Time now 2017-Nov-19 05:03 UTC.
Position N 23°41' W 112°40'.

Length 200 m; draft 10.4 m.

Type: Ship. MMSI: 354726000.

Date/timePositionNaut miles runAvg speedWind from/ knotsBaromVisibWave heightAir tempDewpointWater temp
2017-Nov-15 22:00N 23°41' W 112°40'1813.1
2017-Nov-15 20:37N 23°51' W 112°56'213.1
2017-Nov-15 20:30N 23°52' W 112°57'4313.2
2017-Nov-15 17:14N 24°16' W 113°37'613.0
2017-Nov-15 16:48N 24°19' W 113°42'1713.0
2017-Nov-15 15:31N 24°28' W 113°57'113.5
2017-Nov-15 15:27N 24°29' W 113°58'1613.1
2017-Nov-15 14:12N 24°38' W 114°13'413.1
2017-Nov-15 13:54N 24°40' W 114°17'613.1
2017-Nov-15 13:27N 24°44' W 114°22'613.0
2017-Nov-15 13:00N 24°47' W 114°28'613.0
2017-Nov-15 12:30N 24°51' W 114°33'1213.1
2017-Nov-15 11:37N 24°58' W 114°43'113.0
2017-Nov-15 11:30N 24°59' W 114°45'912.7
2017-Nov-15 10:46N 25°04' W 114°53'312.4
2017-Nov-15 10:30N 25°06' W 114°56'712.5
2017-Nov-15 09:56N 25°11' W 115°02'2012.8
2017-Nov-15 08:23N 25°23' W 115°19'512.7
2017-Nov-15 08:00N 25°26' W 115°23'1812.9
2017-Nov-15 06:37N 25°37' W 115°39'313.1
2017-Nov-15 06:23N 25°39' W 115°42'  
2017-Nov-09 17:42N 46°11' W 125°44'2 9.1
2017-Nov-09 17:30N 46°13' W 125°42'6 8.8
2017-Nov-09 16:51N 46°16' W 125°35'3 9.1
2017-Nov-09 16:31N 46°17' W 125°32'4 8.6
2017-Nov-09 16:00N 46°20' W 125°26'4 8.7
2017-Nov-09 15:30N 46°22' W 125°21'4 9.0
2017-Nov-09 15:01N 46°26' W 125°20'4 8.6
2017-Nov-09 14:30N 46°31' W 125°19'4 8.6
2017-Nov-09 14:00N 46°35' W 125°18'4 7.6
2017-Nov-09 13:30N 46°38' W 125°16'4 8.2
2017-Nov-09 13:01N 46°42' W 125°14'6 8.7
2017-Nov-09 12:23N 46°48' W 125°12'3 8.1
2017-Nov-09 12:01N 46°51' W 125°11'2 3.2
2017-Nov-09 11:18N 46°52' W 125°09'310.8
2017-Nov-09 11:00N 46°50' W 125°06'510.9
2017-Nov-09 10:31N 46°45' W 125°00'510.9
2017-Nov-09 10:00N 46°41' W 124°55'611.2
2017-Nov-09 09:31N 46°37' W 124°50'611.4
2017-Nov-09 09:00N 46°32' W 124°45'611.1
2017-Nov-09 08:31N 46°28' W 124°40'510.9
2017-Nov-09 08:01N 46°24' W 124°35'510.0
2017-Nov-09 07:31N 46°20' W 124°30'5 9.4
2017-Nov-09 07:01N 46°17' W 124°26'5 9.7
2017-Nov-09 06:30N 46°13' W 124°21'6 7.7
2017-Nov-09 05:46N 46°12' W 124°13'2 9.0
2017-Nov-09 05:31N 46°13' W 124°10'4 8.3
2017-Nov-09 05:01N 46°15' W 124°05'611.8
2017-Nov-09 04:31N 46°13' W 123°57'5 9.8
2017-Nov-09 04:00N 46°12' W 123°50'510.2
2017-Nov-09 03:31N 46°14' W 123°44'612.5
2017-Nov-09 03:01N 46°15' W 123°35'510.7
2017-Nov-09 02:31N 46°16' W 123°27'510.5
2017-Nov-09 02:00N 46°11' W 123°25'510.7
2017-Nov-09 01:31N 46°09' W 123°18'611.9
2017-Nov-09 01:00N 46°11' W 123°10'611.6
2017-Nov-09 00:27N 46°09' W 123°02'410.2
2017-Nov-09 00:01N 46°06' W 122°57'5 9.8
2017-Nov-08 23:30N 46°02' W 122°53'510.5
2017-Nov-08 23:00N 45°57' W 122°49'612.3
2017-Nov-08 22:30N 45°51' W 122°47'612.0
2017-Nov-08 22:01N 45°45' W 122°46'611.9
2017-Nov-08 21:30N 45°39' W 122°46'3 6.9
2017-Nov-08 21:00N 45°36' W 122°47'0 0.4
2017-Nov-08 20:13N 45°36' W 122°46'0 0.0
2017-Nov-08 19:58N 45°36' W 122°46'0 0.0
2017-Nov-08 19:28N 45°36' W 122°46'0 0.0
2017-Nov-08 19:01N 45°36' W 122°46'0 0.0
2017-Nov-08 18:28N 45°36' W 122°46'0 0.0
2017-Nov-08 17:49N 45°36' W 122°46'0 0.0
2017-Nov-08 17:10N 45°36' W 122°46'0 0.0
2017-Nov-08 16:58N 45°36' W 122°46'0 0.0
2017-Nov-08 16:31N 45°36' W 122°46'0 0.0
2017-Nov-08 16:01N 45°36' W 122°46'0 0.0
2017-Nov-08 15:25N 45°36' W 122°46'0 0.0
2017-Nov-08 14:58N 45°36' W 122°46'0 0.0
2017-Nov-08 14:07N 45°36' W 122°46'0 0.0
2017-Nov-08 13:58N 45°36' W 122°46'0 0.0
2017-Nov-08 13:16N 45°36' W 122°46'0 0.0
2017-Nov-08 13:01N 45°36' W 122°46'0 0.0
2017-Nov-08 12:31N 45°36' W 122°46'0 0.0
2017-Nov-08 12:01N 45°36' W 122°46'0 0.0
2017-Nov-08 11:25N 45°36' W 122°46'0 0.0
2017-Nov-08 10:58N 45°36' W 122°46'0 0.0
2017-Nov-08 10:31N 45°36' W 122°46'0 0.1
2017-Nov-08 09:46N 45°36' W 122°47'0 0.0
2017-Nov-08 09:25N 45°36' W 122°47'0 0.0
2017-Nov-08 09:01N 45°36' W 122°47'0 0.0
2017-Nov-08 08:16N 45°36' W 122°47'0 0.0
2017-Nov-08 08:01N 45°36' W 122°47'0 0.0
2017-Nov-08 07:28N 45°36' W 122°47'0 0.0
2017-Nov-08 06:58N 45°36' W 122°47'0 0.0
2017-Nov-08 06:28N 45°36' W 122°47'0 0.0
2017-Nov-08 05:55N 45°36' W 122°47'0 0.1
2017-Nov-08 05:22N 45°36' W 122°46'0 0.0
2017-Nov-08 04:55N 45°36' W 122°46'0 0.0
2017-Nov-08 04:13N 45°36' W 122°46'0 0.0
2017-Nov-08 03:58N 45°36' W 122°46'0 0.0
2017-Nov-08 03:25N 45°36' W 122°46'0 0.0
2017-Nov-08 02:52N 45°36' W 122°46'0 0.0
2017-Nov-08 02:16N 45°36' W 122°46'0 0.0
2017-Nov-08 01:55N 45°36' W 122°46'0 0.0
2017-Nov-08 01:28N 45°36' W 122°46'0 0.0
2017-Nov-08 00:58N 45°36' W 122°46'0 0.0
2017-Nov-08 00:31N 45°36' W 122°46'0 0.1
2017-Nov-08 00:00N 45°36' W 122°47'0 0.0
2017-Nov-07 23:22N 45°36' W 122°47'0 0.0
2017-Nov-07 22:55N 45°36' W 122°47'0 0.0
2017-Nov-07 22:28N 45°36' W 122°47'0 0.0
2017-Nov-07 21:55N 45°36' W 122°47'0 0.0
2017-Nov-07 21:07N 45°36' W 122°47'0 0.0
2017-Nov-07 20:52N 45°36' W 122°47'0 0.0
2017-Nov-07 20:28N 45°36' W 122°47'0 0.0
2017-Nov-07 19:55N 45°36' W 122°47'0 0.1
2017-Nov-07 19:25N 45°36' W 122°46'0 0.0
2017-Nov-07 18:58N 45°36' W 122°46'0 0.0
2017-Nov-07 18:28N 45°36' W 122°46'0 0.0
2017-Nov-07 17:49N 45°36' W 122°46'0 0.0
2017-Nov-07 17:10N 45°36' W 122°46'0 0.0
2017-Nov-07 16:58N 45°36' W 122°46'0 0.0
2017-Nov-07 16:31N 45°36' W 122°46'0 0.0
2017-Nov-07 15:58N 45°36' W 122°46'0 0.0
2017-Nov-07 15:25N 45°36' W 122°46'0 0.0
2017-Nov-07 15:01N 45°36' W 122°46'0 0.0
2017-Nov-07 14:25N 45°36' W 122°46'0 0.0
2017-Nov-07 13:55N 45°36' W 122°46'0 0.0
2017-Nov-07 13:28N 45°36' W 122°46'0 0.0
2017-Nov-07 12:55N 45°36' W 122°46'0 0.0
2017-Nov-07 12:25N 45°36' W 122°46'0 0.0
2017-Nov-07 11:54N 45°36' W 122°46'0 0.0
2017-Nov-07 11:25N 45°36' W 122°46'0 0.0
2017-Nov-07 11:01N 45°36' W 122°46'0 0.0
2017-Nov-07 10:28N 45°36' W 122°46'0 0.0
2017-Nov-07 09:52N 45°36' W 122°46'0 0.0
2017-Nov-07 09:28N 45°36' W 122°46'0 0.0
2017-Nov-07 08:55N 45°36' W 122°46'0 0.0
2017-Nov-07 08:25N 45°36' W 122°46'0 0.1
2017-Nov-07 08:00N 45°36' W 122°47'1 1.1
2017-Nov-07 07:30N 45°36' W 122°47'3 6.0
2017-Nov-07 07:00N 45°39' W 122°46'1 1.0
2017-Nov-07 06:24N 45°40' W 122°46'0 0.2
2017-Nov-07 06:00N 45°40' W 122°46'0 0.0
2017-Nov-07 05:30N 45°40' W 122°46'0 0.0
2017-Nov-07 05:00N 45°40' W 122°46'0 0.0
2017-Nov-07 04:27N 45°40' W 122°46'0 0.0
2017-Nov-07 04:00N 45°40' W 122°46'0 0.0
2017-Nov-07 00:27N 45°40' W 122°46'0 0.0
2017-Nov-07 00:00N 45°40' W 122°46'0 0.0
2017-Nov-06 23:30N 45°40' W 122°46'0 0.0
2017-Nov-06 22:54N 45°40' W 122°46'0 0.0
2017-Nov-06 22:27N 45°40' W 122°46'0 0.0
2017-Nov-06 22:00N 45°40' W 122°46'0 0.0
2017-Nov-06 21:30N 45°40' W 122°46'0 0.0
2017-Nov-06 21:00N 45°40' W 122°46'0 0.0
2017-Nov-06 20:18N 45°40' W 122°46'0 0.0
2017-Nov-06 02:27N 45°40' W 122°46'0 0.0
2017-Nov-06 01:57N 45°40' W 122°46'0 0.0
2017-Nov-06 01:30N 45°40' W 122°46'0 0.0
2017-Nov-06 01:00N 45°40' W 122°46'0 0.0
2017-Nov-06 00:27N 45°40' W 122°46'0 0.0
2017-Nov-06 00:00N 45°40' W 122°46'0 0.0
2017-Nov-05 23:21N 45°40' W 122°46'0 0.0
2017-Nov-05 23:00N 45°40' W 122°46'0 0.0
2017-Nov-05 22:18N 45°40' W 122°46'  

Dump ship's entire track history